Time;durP1;ratioP1;P1;durP2;ratioP2;P2;SDS_P1;SDS_P2;PMS_P1;PMS_P2;Temp;Humidity;BMP_temperature;BMP_pressure;BME280_temperature;BME280_humidity;BME280_pressure;Samples;Min_cycle;Max_cycle;Signal;HPM_P1;HPM_P2
2022/09/24 00:02:39;;;;;;;6.78;2.60;;;13.80;99.90;;;;;;6156809;28;20464;-82
2022/09/24 00:05:41;;;;;;;3.25;2.38;;;13.80;99.90;;;;;;6157205;28;20054;-82
2022/09/24 00:08:43;;;;;;;5.45;2.78;;;13.80;99.90;;;;;;6155979;28;20413;-80
2022/09/24 00:11:45;;;;;;;5.88;2.88;;;13.70;99.90;;;;;;6154587;28;20039;-80
2022/09/24 00:14:48;;;;;;;7.45;2.95;;;13.70;99.90;;;;;;6155176;28;20520;-82
2022/09/24 00:17:49;;;;;;;4.00;2.50;;;13.70;99.90;;;;;;6157669;28;20509;-81
2022/09/24 00:20:51;;;;;;;7.20;3.10;;;13.70;99.90;;;;;;6160982;28;20058;-82
2022/09/24 00:23:55;;;;;;;9.10;2.58;;;13.70;99.90;;;;;;6158358;28;20059;-80
2022/09/24 00:26:55;;;;;;;3.65;2.30;;;13.70;99.90;;;;;;6156030;28;20054;-81
2022/09/24 00:29:58;;;;;;;4.38;2.85;;;13.60;99.90;;;;;;6158717;28;20051;-81
2022/09/24 00:33:00;;;;;;;6.20;2.83;;;13.60;99.90;;;;;;6159321;28;20051;-81
2022/09/24 00:36:04;;;;;;;7.00;3.70;;;13.60;99.90;;;;;;6158344;28;20505;-81
2022/09/24 00:39:06;;;;;;;4.28;2.90;;;13.60;99.90;;;;;;6158792;28;20047;-81
2022/09/24 00:42:09;;;;;;;8.93;4.10;;;13.60;99.90;;;;;;6160008;28;20425;-83
2022/09/24 00:45:12;;;;;;;6.07;3.47;;;13.50;99.90;;;;;;6174731;28;20156;-81
2022/09/24 00:48:14;;;;;;;6.50;3.17;;;13.50;99.90;;;;;;6184271;28;20055;-83
2022/09/24 00:51:20;;;;;;;8.80;3.08;;;13.40;99.90;;;;;;6184305;28;20050;-82
2022/09/24 00:54:27;;;;;;;4.65;2.95;;;13.40;99.90;;;;;;6183487;28;20051;-82
2022/09/24 00:57:29;;;;;;;10.57;3.45;;;13.20;99.90;;;;;;6184161;28;20106;-81
2022/09/24 01:00:33;;;;;;;5.85;3.25;;;13.10;99.90;;;;;;6181473;28;20050;-80
2022/09/24 01:03:39;;;;;;;6.03;3.55;;;13.00;99.90;;;;;;6179260;28;20051;-80
2022/09/24 01:06:41;;;;;;;10.02;3.50;;;13.00;99.90;;;;;;6178859;28;20047;-80
2022/09/24 01:09:43;;;;;;;10.65;3.70;;;12.90;99.90;;;;;;6178947;28;20057;-80
2022/09/24 01:12:55;;;;;;;5.47;3.45;;;12.80;99.90;;;;;;6179938;28;20054;-80
2022/09/24 01:16:04;;;;;;;8.75;3.63;;;12.80;99.90;;;;;;6179254;28;20054;-80
2022/09/24 01:19:23;;;;;;;10.95;3.38;;;12.70;99.90;;;;;;6181960;28;20061;-82
2022/09/24 01:22:36;;;;;;;7.22;3.78;;;12.70;99.90;;;;;;6179513;28;20050;-80
2022/09/24 01:25:45;;;;;;;7.40;3.33;;;12.60;99.90;;;;;;6177943;28;20058;-80
2022/09/24 01:29:04;;;;;;;7.22;2.92;;;12.60;99.90;;;;;;6180742;28;20058;-80
2022/09/24 01:32:10;;;;;;;;;;;12.50;99.90;;;;;;6180265;28;20146;-81
2022/09/24 01:35:17;;;;;;;9.07;3.65;;;12.40;99.90;;;;;;6178624;28;19929;-79
2022/09/24 01:38:23;;;;;;;5.47;3.25;;;12.40;99.90;;;;;;6178135;28;20053;-80
2022/09/24 01:41:26;;;;;;;5.43;3.72;;;12.50;99.90;;;;;;6179010;28;20047;-80
2022/09/24 01:44:27;;;;;;;6.38;3.92;;;12.50;99.90;;;;;;6178466;28;20051;-79
2022/09/24 01:47:34;;;;;;;6.78;3.92;;;12.60;99.90;;;;;;6178730;28;20050;-80
2022/09/24 01:50:43;;;;;;;7.05;3.58;;;12.60;99.90;;;;;;6178506;28;20054;-80
2022/09/24 01:53:50;;;;;;;6.82;2.85;;;12.60;99.90;;;;;;6178191;28;20054;-82
2022/09/24 01:56:55;;;;;;;4.75;3.50;;;12.60;99.90;;;;;;6178536;28;20062;-80
2022/09/24 02:00:01;;;;;;;6.47;4.00;;;12.60;99.90;;;;;;6177957;28;20043;-83
2022/09/24 02:03:10;;;;;;;8.07;3.65;;;12.60;99.90;;;;;;6178135;28;20047;-80
2022/09/24 02:06:17;;;;;;;4.93;2.85;;;12.70;99.90;;;;;;6178839;28;20046;-81
2022/09/24 02:09:33;;;;;;;7.65;3.20;;;12.70;99.90;;;;;;6178531;28;20057;-80
2022/09/24 02:12:40;;;;;;;7.72;3.33;;;12.70;99.90;;;;;;6178573;28;20117;-80
2022/09/24 02:15:46;;;;;;;3.88;2.70;;;12.70;99.90;;;;;;6178820;28;20515;-81
2022/09/24 02:18:55;;;;;;;4.15;3.00;;;12.70;99.90;;;;;;6177916;28;20053;-80
2022/09/24 02:21:58;;;;;;;11.10;3.63;;;12.70;99.90;;;;;;6177903;28;20062;-81
2022/09/24 02:25:04;;;;;;;7.75;3.22;;;12.70;99.90;;;;;;6178464;28;20050;-80
2022/09/24 02:28:06;;;;;;;4.88;3.50;;;12.70;99.90;;;;;;6176864;28;20098;-80
2022/09/24 02:31:11;;;;;;;5.18;3.17;;;12.70;99.90;;;;;;6178114;28;20051;-80
2022/09/24 02:34:24;;;;;;;4.78;3.00;;;12.70;99.90;;;;;;6178066;28;20059;-80
2022/09/24 02:37:26;;;;;;;6.03;3.15;;;12.70;99.90;;;;;;6178906;28;20054;-80
2022/09/24 02:40:27;;;;;;;4.97;3.05;;;12.70;99.90;;;;;;6177666;28;20051;-80
2022/09/24 02:43:29;;;;;;;5.80;3.35;;;12.60;99.90;;;;;;6177277;28;20053;-82
2022/09/24 02:46:31;;;;;;;10.43;2.75;;;12.60;99.90;;;;;;6177644;28;20440;-80
2022/09/24 02:49:34;;;;;;;4.43;2.78;;;12.60;99.90;;;;;;6177039;28;20058;-80
2022/09/24 02:52:35;;;;;;;4.68;3.53;;;12.60;99.90;;;;;;6178163;28;20043;-81
2022/09/24 02:55:37;;;;;;;4.88;2.80;;;12.50;99.90;;;;;;6177551;28;20130;-80
2022/09/24 02:58:39;;;;;;;4.95;3.13;;;12.60;99.90;;;;;;6177291;28;20054;-80
2022/09/24 03:01:41;;;;;;;3.83;3.05;;;12.70;99.90;;;;;;6177392;28;20047;-80
2022/09/24 03:04:45;;;;;;;7.05;3.40;;;12.70;99.90;;;;;;6177216;28;20055;-79
2022/09/24 03:07:46;;;;;;;4.80;3.03;;;12.60;99.90;;;;;;6176249;28;20150;-80
2022/09/24 03:10:50;;;;;;;5.13;3.53;;;12.60;99.90;;;;;;6176748;28;20054;-81
2022/09/24 03:13:51;;;;;;;6.00;2.90;;;12.60;99.90;;;;;;6177255;28;20497;-80
2022/09/24 03:16:53;;;;;;;5.30;2.90;;;12.60;99.90;;;;;;6177877;28;20051;-80
2022/09/24 03:19:56;;;;;;;7.05;3.28;;;12.60;99.90;;;;;;6176488;28;20050;-80
2022/09/24 03:22:58;;;;;;;5.85;3.90;;;12.60;99.90;;;;;;6177672;28;20042;-80
2022/09/24 03:25:59;;;;;;;4.90;3.30;;;12.60;99.90;;;;;;6177186;28;20057;-80
2022/09/24 03:29:01;;;;;;;6.00;3.40;;;12.60;99.90;;;;;;6177296;28;20065;-80
2022/09/24 03:32:02;;;;;;;5.90;3.20;;;12.60;99.90;;;;;;6175259;28;20049;-80
2022/09/24 03:35:05;;;;;;;12.80;5.35;;;12.60;99.90;;;;;;6175215;28;20508;-80
2022/09/24 03:38:07;;;;;;;7.70;3.45;;;12.50;99.90;;;;;;6177066;28;20058;-80
2022/09/24 03:41:10;;;;;;;6.90;3.63;;;12.50;99.90;;;;;;6177602;28;20057;-80
2022/09/24 03:44:11;;;;;;;6.45;3.42;;;12.50;99.90;;;;;;6175952;28;20505;-81
2022/09/24 03:47:13;;;;;;;5.07;3.30;;;12.50;99.90;;;;;;6176325;28;20047;-79
2022/09/24 03:50:16;;;;;;;4.05;3.22;;;12.50;99.90;;;;;;6177398;28;20051;-80
2022/09/24 03:53:19;;;;;;;7.35;3.22;;;12.50;99.90;;;;;;6176212;28;20046;-80
2022/09/24 03:56:21;;;;;;;5.18;3.03;;;12.60;99.90;;;;;;6175647;28;20054;-80
2022/09/24 03:59:22;;;;;;;6.25;3.50;;;12.60;99.90;;;;;;6175775;28;20043;-80
2022/09/24 04:02:24;;;;;;;6.93;2.88;;;12.70;99.90;;;;;;6176483;28;20047;-82
2022/09/24 04:05:28;;;;;;;4.88;3.08;;;12.60;99.90;;;;;;6176205;28;20529;-79
2022/09/24 04:08:30;;;;;;;8.60;3.53;;;12.50;99.90;;;;;;6175995;28;20177;-79
2022/09/24 04:11:34;;;;;;;5.10;2.88;;;12.40;99.90;;;;;;6175847;28;20054;-80
2022/09/24 04:14:36;;;;;;;3.83;3.08;;;12.30;99.90;;;;;;6176418;28;20536;-80
2022/09/24 04:17:37;;;;;;;6.32;3.25;;;12.30;99.90;;;;;;6176245;28;20054;-80
2022/09/24 04:20:40;;;;;;;7.65;3.50;;;12.30;99.90;;;;;;6176416;28;20051;-81
2022/09/24 04:23:42;;;;;;;5.65;3.60;;;12.30;99.90;;;;;;6175298;28;20054;-81
2022/09/24 04:26:44;;;;;;;6.22;3.45;;;12.30;99.90;;;;;;6176238;28;20047;-80
2022/09/24 04:29:46;;;;;;;8.45;3.10;;;12.30;99.90;;;;;;6176186;28;20051;-80
2022/09/24 04:32:49;;;;;;;5.28;2.97;;;12.40;99.90;;;;;;6176673;28;20047;-81
2022/09/24 04:35:52;;;;;;;6.22;3.40;;;12.40;99.90;;;;;;6175972;28;20054;-79
2022/09/24 04:38:54;;;;;;;10.80;3.03;;;12.50;99.90;;;;;;6175976;28;20051;-81
2022/09/24 04:41:55;;;;;;;18.38;4.32;;;12.50;99.90;;;;;;6176230;28;20047;-80
2022/09/24 04:44:57;;;;;;;5.88;3.28;;;12.40;99.90;;;;;;6176535;28;20051;-80
2022/09/24 04:48:00;;;;;;;5.35;3.58;;;12.40;99.90;;;;;;6175528;28;20125;-79
2022/09/24 04:51:05;;;;;;;5.38;3.85;;;12.30;99.90;;;;;;6174466;28;20053;-79
2022/09/24 04:54:06;;;;;;;6.18;3.13;;;12.30;99.90;;;;;;6173839;28;20046;-81
2022/09/24 04:57:08;;;;;;;13.57;3.70;;;12.30;99.90;;;;;;6174792;28;20050;-79
2022/09/24 05:00:14;;;;;;;6.28;4.28;;;12.30;99.90;;;;;;6174139;28;20043;-79
2022/09/24 05:03:15;;;;;;;13.25;5.03;;;12.40;99.90;;;;;;6175559;28;20082;-79
2022/09/24 05:06:18;;;;;;;9.77;3.45;;;12.40;99.90;;;;;;6179498;28;20050;-80
2022/09/24 05:09:20;;;;;;;5.32;3.88;;;12.40;99.90;;;;;;6179559;28;20062;-80
2022/09/24 05:12:22;;;;;;;5.15;3.53;;;12.40;99.90;;;;;;6178648;28;20057;-80
2022/09/24 05:15:23;;;;;;;6.35;3.88;;;12.50;99.90;;;;;;6179002;28;20057;-80
2022/09/24 05:18:25;;;;;;;7.05;4.55;;;12.50;99.90;;;;;;6178727;28;20513;-79
2022/09/24 05:21:29;;;;;;;6.40;3.53;;;12.40;99.90;;;;;;6180093;28;20062;-80
2022/09/24 05:24:30;;;;;;;7.40;3.53;;;12.40;99.90;;;;;;6178513;28;20043;-80
2022/09/24 05:27:33;;;;;;;4.82;3.20;;;12.40;99.90;;;;;;6178010;28;20055;-79
2022/09/24 05:30:35;;;;;;;4.68;3.60;;;12.40;99.90;;;;;;6177515;28;20046;-78
2022/09/24 05:33:36;;;;;;;7.95;3.78;;;12.40;99.90;;;;;;6179165;28;20042;-80
2022/09/24 05:36:41;;;;;;;10.18;3.95;;;12.40;99.90;;;;;;6178777;28;20147;-80
2022/09/24 05:39:43;;;;;;;5.45;3.85;;;12.50;99.90;;;;;;6181359;28;20053;-81
2022/09/24 05:42:45;;;;;;;7.45;3.30;;;12.60;99.90;;;;;;6181018;28;20043;-80
2022/09/24 05:45:47;;;;;;;7.28;3.80;;;12.70;99.90;;;;;;6180862;28;20050;-81
2022/09/24 05:48:49;;;;;;;5.47;3.38;;;12.70;99.90;;;;;;6181092;28;20138;-81
2022/09/24 05:51:52;;;;;;;6.78;3.45;;;12.70;99.90;;;;;;6181111;28;20058;-81
2022/09/24 05:54:54;;;;;;;6.85;3.40;;;12.80;99.90;;;;;;6181049;28;20051;-81
2022/09/24 05:57:56;;;;;;;8.57;3.30;;;12.80;99.90;;;;;;6180555;28;20094;-80
2022/09/24 06:00:59;;;;;;;6.13;3.03;;;12.80;99.90;;;;;;6182039;28;20055;-81
2022/09/24 06:04:01;;;;;;;8.40;3.80;;;12.90;99.90;;;;;;6181202;28;20049;-81
2022/09/24 06:07:04;;;;;;;6.53;3.70;;;12.90;99.90;;;;;;6181158;28;20575;-81
2022/09/24 06:10:07;;;;;;;5.85;3.65;;;13.10;99.90;;;;;;6180588;28;20397;-81
2022/09/24 06:13:10;;;;;;;5.63;3.20;;;13.10;99.90;;;;;;6181465;28;20054;-81
2022/09/24 06:16:12;;;;;;;7.32;4.32;;;13.10;99.90;;;;;;6180312;28;20046;-81
2022/09/24 06:19:13;;;;;;;7.63;4.00;;;13.20;99.90;;;;;;6180190;28;20583;-81
2022/09/24 06:22:16;;;;;;;8.05;3.92;;;13.30;99.90;;;;;;6181442;28;20547;-81
2022/09/24 06:25:18;;;;;;;6.43;3.50;;;13.40;99.90;;;;;;6180955;28;20051;-81
2022/09/24 06:28:20;;;;;;;7.35;4.15;;;13.60;99.90;;;;;;6180915;28;20050;-81
2022/09/24 06:31:21;;;;;;;7.50;3.58;;;13.70;99.90;;;;;;6179949;28;20058;-81
2022/09/24 06:34:23;;;;;;;7.57;3.25;;;13.80;99.90;;;;;;6180433;28;20079;-81
2022/09/24 06:37:26;;;;;;;7.10;3.47;;;13.90;99.90;;;;;;6179902;28;20401;-81
2022/09/24 06:40:28;;;;;;;8.27;3.30;;;14.10;99.90;;;;;;6180521;28;20057;-81
2022/09/24 06:43:30;;;;;;;5.65;3.10;;;14.10;99.90;;;;;;6180848;28;20099;-81
2022/09/24 06:46:31;;;;;;;3.95;3.00;;;14.30;99.90;;;;;;6180094;28;20069;-81
2022/09/24 06:49:33;;;;;;;10.15;3.53;;;14.40;99.90;;;;;;6179366;28;20051;-81
2022/09/24 06:52:36;;;;;;;4.97;2.95;;;14.50;99.90;;;;;;6180313;28;20054;-81
2022/09/24 06:55:38;;;;;;;8.00;3.67;;;14.60;99.90;;;;;;6179805;28;20058;-81
2022/09/24 06:58:40;;;;;;;4.50;2.67;;;14.70;99.90;;;;;;6179694;28;20047;-81
2022/09/24 07:01:41;;;;;;;12.20;4.38;;;14.70;99.90;;;;;;6179171;28;20050;-81
2022/09/24 07:04:43;;;;;;;10.43;3.75;;;14.80;99.90;;;;;;6154844;28;20059;-80
2022/09/24 07:07:46;;;;;;;8.10;4.32;;;14.90;99.90;;;;;;6176383;28;20493;-82
2022/09/24 07:10:51;;;;;;;5.97;3.55;;;15.00;99.90;;;;;;6165545;28;20134;-81
2022/09/24 07:13:52;;;;;;;7.28;4.45;;;15.10;99.90;;;;;;6177493;28;20047;-81
2022/09/24 07:16:54;;;;;;;7.47;4.45;;;15.10;99.90;;;;;;6175536;28;20066;-81
2022/09/24 07:19:56;;;;;;;8.48;4.57;;;15.30;99.90;;;;;;6154777;28;20047;-80
2022/09/24 07:22:59;;;;;;;7.15;4.47;;;15.40;99.90;;;;;;6155913;28;20044;-80
2022/09/24 07:26:00;;;;;;;7.03;4.32;;;15.50;99.90;;;;;;6153882;28;20047;-81
2022/09/24 07:29:03;;;;;;;7.38;3.50;;;15.60;99.90;;;;;;6176752;28;20057;-80
2022/09/24 07:32:05;;;;;;;11.23;4.13;;;15.70;99.90;;;;;;6177772;28;20066;-80
2022/09/24 07:35:08;;;;;;;7.30;4.57;;;15.70;99.90;;;;;;6178609;28;20047;-81
2022/09/24 07:38:12;;;;;;;24.92;5.85;;;15.70;99.90;;;;;;6178710;28;20050;-81
2022/09/24 07:41:14;;;;;;;6.85;4.38;;;15.70;99.90;;;;;;6173996;28;20061;-80
2022/09/24 07:44:19;;;;;;;7.43;4.75;;;15.80;99.90;;;;;;6179969;28;20042;-80
2022/09/24 07:47:20;;;;;;;10.20;5.63;;;15.90;99.90;;;;;;6179355;28;20073;-80
2022/09/24 07:50:22;;;;;;;13.55;4.63;;;15.90;99.90;;;;;;6179212;28;20424;-81
2022/09/24 07:53:25;;;;;;;8.10;6.22;;;16.00;99.90;;;;;;6180265;28;20050;-80
2022/09/24 07:56:27;;;;;;;8.48;5.13;;;16.10;99.90;;;;;;6179893;28;20058;-81
2022/09/24 07:59:29;;;;;;;12.15;5.60;;;16.20;99.90;;;;;;6179258;28;20050;-81
2022/09/24 08:02:31;;;;;;;7.70;5.10;;;16.30;99.90;;;;;;6178977;28;20512;-81
2022/09/24 08:05:32;;;;;;;9.57;5.10;;;16.40;99.90;;;;;;6180100;28;20057;-81
2022/09/24 08:08:37;;;;;;;11.23;5.43;;;16.50;99.90;;;;;;6174444;28;20406;-80
2022/09/24 08:11:39;;;;;;;8.23;4.93;;;16.50;99.90;;;;;;6175408;28;20050;-83
2022/09/24 08:14:42;;;;;;;8.15;4.55;;;16.50;99.90;;;;;;6180816;28;20049;-81
2022/09/24 08:17:43;;;;;;;7.18;5.07;;;16.60;99.90;;;;;;6179277;28;20057;-81
2022/09/24 08:20:45;;;;;;;7.55;4.88;;;16.80;99.90;;;;;;6180229;28;20062;-81
2022/09/24 08:23:48;;;;;;;5.88;4.57;;;17.00;99.90;;;;;;6179438;28;20047;-81
2022/09/24 08:26:50;;;;;;;7.70;4.90;;;17.20;99.90;;;;;;6175703;28;20047;-81
2022/09/24 08:29:51;;;;;;;9.00;4.60;;;17.60;99.90;;;;;;6174275;28;20092;-80
2022/09/24 08:32:53;;;;;;;11.18;5.85;;;17.90;99.90;;;;;;6182936;28;20074;-81
2022/09/24 08:35:55;;;;;;;8.32;6.78;;;18.10;99.90;;;;;;6178233;28;20058;-80
2022/09/24 08:38:58;;;;;;;8.90;5.40;;;18.40;99.40;;;;;;6173429;28;20058;-81
2022/09/24 08:42:03;;;;;;;9.35;5.55;;;18.50;98.70;;;;;;6182557;28;20051;-80
2022/09/24 08:48:30;;;;;;;7.20;4.38;;;18.70;97.80;;;;;;6182561;28;20042;-81
2022/09/24 08:51:39;;;;;;;11.18;4.95;;;18.80;97.60;;;;;;6182095;28;20046;-81
2022/09/24 08:54:44;;;;;;;9.77;5.28;;;18.90;97.30;;;;;;6183303;28;20046;-81
2022/09/24 08:57:55;;;;;;;6.82;4.70;;;19.10;97.10;;;;;;6181616;28;20051;-81
2022/09/24 09:01:05;;;;;;;10.48;4.80;;;19.20;96.50;;;;;;6182553;28;20054;-81
2022/09/24 09:04:23;;;;;;;9.95;4.80;;;19.30;96.00;;;;;;6182545;28;20509;-81
2022/09/24 09:07:30;;;;;;;8.75;5.50;;;19.30;95.70;;;;;;6182905;28;20050;-81
2022/09/24 09:10:37;;;;;;;8.90;5.18;;;19.40;95.40;;;;;;6168753;28;20043;-81
2022/09/24 09:13:43;;;;;;;11.45;5.18;;;19.50;95.20;;;;;;6157825;28;20516;-81
2022/09/24 09:16:50;;;;;;;8.05;5.78;;;19.60;94.80;;;;;;6158078;28;20055;-81
2022/09/24 09:19:56;;;;;;;8.07;4.73;;;19.80;94.40;;;;;;6158317;28;20051;-81
2022/09/24 09:23:03;;;;;;;8.38;3.55;;;19.90;94.20;;;;;;6158227;28;20059;-81
2022/09/24 09:26:11;;;;;;;9.33;3.77;;;20.00;93.70;;;;;;6160260;28;20051;-82
2022/09/24 09:29:13;;;;;;;4.53;3.83;;;20.10;93.80;;;;;;6168651;28;20043;-81
2022/09/24 09:32:29;;;;;;;11.35;4.25;;;20.20;93.80;;;;;;6182363;28;20055;-81
2022/09/24 09:35:38;;;;;;;6.53;3.13;;;20.20;93.50;;;;;;6182071;28;20528;-80
2022/09/24 09:38:51;;;;;;;6.07;3.60;;;20.40;93.30;;;;;;6175088;28;20043;-81
2022/09/24 09:41:59;;;;;;;6.10;2.83;;;20.30;92.90;;;;;;6180265;28;20053;-80
2022/09/24 09:45:02;;;;;;;;;;;20.10;93.10;;;;;;6182333;28;20054;-81
2022/09/24 09:48:04;;;;;;;9.60;3.22;;;20.00;93.10;;;;;;6181803;28;19922;-80
2022/09/24 09:51:06;;;;;;;6.97;3.00;;;19.80;93.50;;;;;;6180280;28;20057;-81
2022/09/24 09:54:08;;;;;;;6.65;2.85;;;19.70;93.80;;;;;;6182038;28;20102;-81
2022/09/24 09:57:16;;;;;;;5.05;3.00;;;19.60;94.10;;;;;;6181060;28;20057;-81
2022/09/24 10:00:26;;;;;;;5.05;3.08;;;19.50;94.30;;;;;;6181945;28;20323;-81
2022/09/24 10:03:31;;;;;;;4.25;3.55;;;19.40;94.60;;;;;;6181177;28;20047;-82
2022/09/24 10:06:35;;;;;;;8.88;4.68;;;19.40;94.80;;;;;;6168447;28;20479;-81
2022/09/24 10:09:38;;;;;;;5.72;3.47;;;19.30;95.00;;;;;;6179724;28;20420;-81
2022/09/24 10:12:41;;;;;;;11.07;4.03;;;19.20;95.40;;;;;;6169445;28;20046;-81
2022/09/24 10:15:49;;;;;;;6.15;4.70;;;19.20;96.20;;;;;;6158825;28;20051;-80
2022/09/24 10:18:51;;;;;;;6.50;3.90;;;19.40;96.70;;;;;;6158055;28;20051;-81
2022/09/24 10:21:56;;;;;;;8.52;4.70;;;19.60;96.90;;;;;;6158621;28;20058;-80
2022/09/24 10:25:00;;;;;;;6.60;4.05;;;19.80;96.60;;;;;;6157719;28;20431;-80
2022/09/24 10:31:31;;;;;;;6.93;3.10;;;20.20;95.60;;;;;;6174061;28;20050;-81
2022/09/24 10:34:33;;;;;;;7.53;3.97;;;20.20;95.70;;;;;;6181973;28;20047;-80
2022/09/24 10:37:35;;;;;;;5.13;3.47;;;20.30;95.50;;;;;;6180741;28;20051;-81
2022/09/24 10:40:39;;;;;;;4.40;2.83;;;20.40;95.60;;;;;;6171636;28;20413;-81
2022/09/24 10:43:50;;;;;;;6.38;2.92;;;20.50;95.50;;;;;;6180233;28;20498;-81
2022/09/24 10:47:10;;;;;;;9.38;3.40;;;20.70;95.40;;;;;;6180972;28;20489;-80
2022/09/24 10:50:23;;;;;;;7.47;3.35;;;20.80;95.40;;;;;;6180803;28;20061;-80
2022/09/24 10:53:37;;;;;;;5.75;2.80;;;20.90;95.40;;;;;;6180845;28;20050;-80
2022/09/24 10:56:43;;;;;;;3.95;2.75;;;21.00;95.60;;;;;;6180010;28;20042;-81
2022/09/24 10:59:56;;;;;;;4.38;2.97;;;21.00;95.60;;;;;;6181012;28;20049;-81
2022/09/24 11:03:36;;;;;;;3.83;2.83;;;21.00;95.20;;;;;;6181360;28;20074;-80
2022/09/24 11:06:50;;;;;;;3.45;2.50;;;20.90;95.50;;;;;;6176397;28;20775;-80
2022/09/24 11:10:00;;;;;;;8.95;3.17;;;20.70;95.80;;;;;;6170294;28;20054;-78
2022/09/24 11:13:10;;;;;;;5.03;2.72;;;20.60;96.00;;;;;;6179707;28;20058;-80
2022/09/24 11:16:38;;;;;;;6.90;3.38;;;20.50;96.60;;;;;;6180947;28;20042;-80
2022/09/24 11:20:05;;;;;;;6.90;3.20;;;20.60;96.50;;;;;;6180619;28;20047;-80
2022/09/24 11:23:31;;;;;;;4.85;3.20;;;20.70;96.40;;;;;;6179161;28;20255;-80
2022/09/24 11:26:46;;;;;;;8.75;3.95;;;21.00;97.10;;;;;;6180435;28;20493;-80
2022/09/24 11:30:02;;;;;;;5.47;3.10;;;21.20;97.40;;;;;;6177933;28;20054;-80
2022/09/24 11:33:25;;;;;;;9.27;3.42;;;21.30;97.40;;;;;;6176872;28;20453;-80
2022/09/24 11:36:41;;;;;;;6.40;3.35;;;21.30;96.90;;;;;;6180880;28;20069;-80
2022/09/24 11:39:58;;;;;;;5.63;2.97;;;21.20;97.30;;;;;;6167367;28;20042;-78
2022/09/24 11:43:17;;;;;;;4.18;3.22;;;21.30;97.00;;;;;;6175475;28;20421;-79
2022/09/24 11:46:28;;;;;;;4.70;3.25;;;21.30;96.80;;;;;;6175539;28;20055;-78
2022/09/24 11:49:43;;;;;;;4.72;2.88;;;21.30;96.80;;;;;;6175362;28;20058;-78
2022/09/24 11:52:50;;;;;;;4.07;3.00;;;21.40;96.90;;;;;;6176912;28;20047;-80
2022/09/24 11:55:56;;;;;;;3.83;3.33;;;21.60;96.60;;;;;;6176241;28;20042;-79
2022/09/24 11:59:07;;;;;;;3.72;2.67;;;21.90;96.20;;;;;;6178439;28;20517;-79
2022/09/24 12:02:16;;;;;;;6.43;3.22;;;22.20;95.50;;;;;;6179897;28;20070;-79
2022/09/24 12:05:29;;;;;;;5.57;3.13;;;22.60;95.50;;;;;;6177704;28;20043;-79
2022/09/24 12:08:37;;;;;;;6.47;2.90;;;23.10;95.00;;;;;;6174481;28;20564;-79
2022/09/24 12:11:44;;;;;;;7.70;3.28;;;23.40;94.60;;;;;;6173332;28;20054;-78
2022/09/24 12:14:51;;;;;;;6.22;2.95;;;23.60;93.40;;;;;;6176740;28;20051;-79
2022/09/24 12:17:57;;;;;;;6.40;3.15;;;23.60;93.30;;;;;;6176250;28;20046;-79
2022/09/24 12:21:06;;;;;;;4.18;2.88;;;23.70;93.10;;;;;;6176211;28;20531;-79
2022/09/24 12:24:15;;;;;;;4.72;3.05;;;23.70;92.60;;;;;;6175016;28;20520;-79
2022/09/24 12:27:22;;;;;;;7.00;3.22;;;23.60;92.20;;;;;;6175269;28;20101;-79
2022/09/24 12:34:00;;;;;;;5.75;3.05;;;23.70;91.90;;;;;;6152955;28;20039;-79
2022/09/24 12:37:07;;;;;;;7.13;2.38;;;23.80;91.30;;;;;;6152915;28;20126;-79
2022/09/24 12:40:25;;;;;;;7.00;3.42;;;23.90;91.70;;;;;;6175512;28;20047;-79
2022/09/24 12:43:32;;;;;;;4.68;2.70;;;24.20;91.70;;;;;;6178937;28;20047;-80
2022/09/24 12:46:40;;;;;;;7.20;2.80;;;24.40;91.10;;;;;;6178309;28;20063;-80
2022/09/24 12:49:42;;;;;;;3.75;2.30;;;24.50;90.40;;;;;;6176499;28;20046;-80
2022/09/24 12:52:45;;;;;;;5.35;3.00;;;24.40;90.30;;;;;;6177634;28;20058;-80
2022/09/24 12:55:47;;;;;;;4.82;2.78;;;24.40;90.50;;;;;;6177535;28;20050;-80
2022/09/24 12:58:49;;;;;;;6.13;2.40;;;24.20;90.10;;;;;;6178105;28;20061;-80
2022/09/24 13:01:50;;;;;;;5.63;3.05;;;24.10;90.40;;;;;;6177181;28;20051;-79
2022/09/24 13:05:16;;;;;;;2.45;1.92;;;23.90;90.40;;;;;;6174854;28;20055;-80
2022/09/24 13:08:26;;;;;;;2.90;1.92;;;24.00;90.50;;;;;;6177224;28;20047;-79
2022/09/24 13:11:32;;;;;;;5.13;2.08;;;24.50;90.70;;;;;;6158239;28;20043;-79
2022/09/24 13:14:34;;;;;;;4.57;2.63;;;25.10;89.30;;;;;;6154522;28;20043;-80
2022/09/24 13:17:37;;;;;;;3.70;1.50;;;25.50;87.40;;;;;;6152800;28;20059;-80
2022/09/24 13:20:41;;;;;;;2.80;1.23;;;25.50;86.20;;;;;;6154855;28;20054;-80
2022/09/24 13:23:47;;;;;;;4.03;1.70;;;25.50;83.50;;;;;;6154038;28;20047;-79
2022/09/24 13:26:49;;;;;;;2.08;1.30;;;25.50;84.70;;;;;;6157703;28;20136;-79
2022/09/24 13:30:05;;;;;;;25.58;18.63;;;25.80;77.50;;;;;;6158101;28;20047;-80
2022/09/24 13:33:20;;;;;;;12.43;8.93;;;26.20;76.50;;;;;;6166634;28;20505;-80
2022/09/24 13:36:30;;;;;;;2.20;1.27;;;26.40;74.40;;;;;;6180410;28;20039;-80
2022/09/24 13:39:42;;;;;;;15.40;12.48;;;26.40;73.20;;;;;;6170673;28;20113;-79
2022/09/24 13:42:50;;;;;;;12.38;9.05;;;26.50;73.00;;;;;;6178620;28;20429;-79
2022/09/24 13:45:53;;;;;;;5.05;2.83;;;26.60;71.20;;;;;;6179545;28;20043;-81
2022/09/24 13:48:58;;;;;;;3.42;1.20;;;26.70;70.50;;;;;;6179959;28;20054;-80
2022/09/24 13:52:10;;;;;;;2.15;1.20;;;26.80;69.60;;;;;;6179623;28;20042;-79
2022/09/24 13:55:19;;;;;;;3.00;1.50;;;26.90;68.80;;;;;;6179670;28;20074;-80
2022/09/24 13:58:27;;;;;;;2.60;1.50;;;27.10;67.40;;;;;;6179401;28;20051;-79
2022/09/24 14:01:35;;;;;;;2.35;1.25;;;27.10;66.50;;;;;;6179246;28;20050;-80
2022/09/24 14:04:41;;;;;;;1.45;0.90;;;27.00;65.90;;;;;;6180003;28;20054;-81
2022/09/24 14:07:43;;;;;;;3.85;1.38;;;26.80;65.90;;;;;;6179658;28;20051;-79
2022/09/24 14:10:50;;;;;;;2.40;1.20;;;26.60;66.30;;;;;;6171036;28;20051;-79
2022/09/24 14:13:53;;;;;;;2.93;1.07;;;26.40;67.00;;;;;;6178616;28;20047;-80
2022/09/24 14:17:06;;;;;;;1.40;0.70;;;26.40;66.60;;;;;;6180073;28;20083;-81
2022/09/24 14:20:14;;;;;;;2.13;1.10;;;26.30;65.60;;;;;;6177784;28;20421;-79
2022/09/24 14:23:19;;;;;;;2.15;1.20;;;26.00;66.40;;;;;;6176772;28;20528;-80
2022/09/24 14:26:29;;;;;;;4.78;1.10;;;25.80;66.50;;;;;;6178811;28;20513;-79
2022/09/24 14:29:38;;;;;;;2.58;1.10;;;25.60;67.30;;;;;;6178129;28;20093;-80
2022/09/24 14:32:42;;;;;;;4.65;1.20;;;25.30;67.00;;;;;;6174276;28;20054;-79
2022/09/24 14:35:46;;;;;;;4.00;0.80;;;25.00;68.00;;;;;;6159306;28;20047;-79
2022/09/24 14:38:53;;;;;;;5.78;1.52;;;24.80;69.30;;;;;;6163112;28;20051;-79
2022/09/24 14:41:58;;;;;;;2.53;1.15;;;24.60;70.10;;;;;;6178141;28;20054;-79
2022/09/24 14:45:03;;;;;;;2.35;1.10;;;24.50;71.40;;;;;;6180567;28;20114;-79
2022/09/24 14:48:16;;;;;;;2.97;1.00;;;24.30;72.00;;;;;;6181185;28;20042;-79
2022/09/24 14:51:24;;;;;;;2.20;1.42;;;24.20;72.30;;;;;;6180145;28;20054;-82
2022/09/24 14:54:30;;;;;;;4.78;1.10;;;23.90;73.20;;;;;;6182796;28;20058;-81
2022/09/24 14:57:37;;;;;;;1.70;1.13;;;23.50;74.10;;;;;;6180353;28;20425;-79
2022/09/24 15:00:48;;;;;;;3.35;1.20;;;23.30;75.20;;;;;;6178605;28;20516;-79
2022/09/24 15:03:52;;;;;;;6.25;1.58;;;23.10;75.60;;;;;;6181564;28;20054;-80
2022/09/24 15:06:54;;;;;;;7.35;1.63;;;22.90;76.90;;;;;;6180927;28;20054;-79
2022/09/24 15:09:57;;;;;;;2.58;1.50;;;22.80;77.60;;;;;;6172184;28;20405;-79
2022/09/24 15:13:00;;;;;;;2.25;1.73;;;22.60;78.60;;;;;;6179582;28;20189;-80
2022/09/24 15:16:07;;;;;;;3.83;1.40;;;22.40;81.20;;;;;;6180622;28;20429;-80
2022/09/24 15:19:18;;;;;;;2.60;1.57;;;22.30;83.90;;;;;;6179459;28;20062;-80
2022/09/24 15:22:21;;;;;;;2.97;1.75;;;22.10;85.90;;;;;;6180527;28;20519;-80
2022/09/24 15:25:23;;;;;;;2.95;1.42;;;22.00;87.60;;;;;;6179703;28;20054;-79
2022/09/24 15:28:28;;;;;;;7.20;1.45;;;21.80;89.80;;;;;;6179083;28;20053;-80
2022/09/24 15:31:30;;;;;;;6.43;2.25;;;21.70;91.00;;;;;;6177939;28;20572;-79
2022/09/24 15:34:31;;;;;;;6.68;2.38;;;21.60;92.10;;;;;;6173354;28;20094;-79
2022/09/24 15:37:36;;;;;;;6.15;2.17;;;21.40;93.10;;;;;;6162032;28;20046;-79
2022/09/24 15:40:41;;;;;;;5.15;2.10;;;21.20;93.90;;;;;;6175398;28;20061;-79
2022/09/24 15:43:44;;;;;;;5.47;2.85;;;21.10;94.70;;;;;;6186713;28;20093;-79
2022/09/24 15:46:46;;;;;;;3.67;2.22;;;20.90;95.50;;;;;;6184956;28;20054;-79
2022/09/24 15:49:48;;;;;;;4.38;2.10;;;20.80;96.10;;;;;;6178976;28;20133;-79
2022/09/24 15:52:53;;;;;;;4.47;2.30;;;20.70;96.70;;;;;;6179470;28;20051;-79
2022/09/24 15:55:57;;;;;;;6.72;2.38;;;20.70;97.20;;;;;;6179202;28;20054;-79
2022/09/24 15:59:00;;;;;;;4.45;2.65;;;20.60;97.40;;;;;;6179275;28;20534;-79
2022/09/24 16:02:04;;;;;;;4.05;2.60;;;20.50;97.60;;;;;;6179520;28;20197;-79
2022/09/24 16:05:11;;;;;;;6.00;2.60;;;20.30;98.10;;;;;;6178559;28;20046;-79
2022/09/24 16:08:13;;;;;;;4.83;2.20;;;20.20;98.40;;;;;;6178063;28;20664;-79
2022/09/24 16:11:15;;;;;;;5.28;2.22;;;20.00;99.00;;;;;;6171283;28;20321;-79
2022/09/24 16:14:18;;;;;;;5.28;2.90;;;19.90;99.60;;;;;;6178840;28;20061;-79